sensor_id;sensor_type;location;lat;lon;timestamp;P1;durP1;ratioP1;P2;durP2;ratioP2
38611;SDS011;24368;52.156;20.788;2023-12-28T00:02:40;29.30;;;19.00;;
38611;SDS011;24368;52.156;20.788;2023-12-28T00:07:42;28.50;;;18.40;;
38611;SDS011;24368;52.156;20.788;2023-12-28T00:12:44;33.20;;;19.90;;
38611;SDS011;24368;52.156;20.788;2023-12-28T00:17:45;30.10;;;20.20;;
38611;SDS011;24368;52.156;20.788;2023-12-28T00:22:47;31.40;;;19.90;;
38611;SDS011;24368;52.156;20.788;2023-12-28T00:27:49;33.30;;;21.30;;
38611;SDS011;24368;52.156;20.788;2023-12-28T00:32:51;26.90;;;19.20;;
38611;SDS011;24368;52.156;20.788;2023-12-28T00:37:52;28.90;;;18.10;;
38611;SDS011;24368;52.156;20.788;2023-12-28T00:42:54;29.90;;;18.40;;
38611;SDS011;24368;52.156;20.788;2023-12-28T00:47:56;29.20;;;17.90;;
38611;SDS011;24368;52.156;20.788;2023-12-28T00:52:58;25.60;;;16.50;;
38611;SDS011;24368;52.156;20.788;2023-12-28T00:58:00;25.50;;;17.60;;
38611;SDS011;24368;52.156;20.788;2023-12-28T01:03:02;27.20;;;17.10;;
38611;SDS011;24368;52.156;20.788;2023-12-28T01:08:04;23.50;;;16.20;;
38611;SDS011;24368;52.156;20.788;2023-12-28T01:13:06;28.00;;;18.20;;
38611;SDS011;24368;52.156;20.788;2023-12-28T01:18:08;27.40;;;16.30;;
38611;SDS011;24368;52.156;20.788;2023-12-28T01:23:10;24.30;;;16.80;;
38611;SDS011;24368;52.156;20.788;2023-12-28T01:28:12;27.80;;;16.70;;
38611;SDS011;24368;52.156;20.788;2023-12-28T01:33:13;21.10;;;14.50;;
38611;SDS011;24368;52.156;20.788;2023-12-28T01:38:15;24.60;;;14.70;;
38611;SDS011;24368;52.156;20.788;2023-12-28T01:43:17;20.20;;;14.90;;
38611;SDS011;24368;52.156;20.788;2023-12-28T01:48:19;24.80;;;14.00;;
38611;SDS011;24368;52.156;20.788;2023-12-28T01:53:21;19.00;;;13.20;;
38611;SDS011;24368;52.156;20.788;2023-12-28T01:58:24;20.80;;;13.20;;
38611;SDS011;24368;52.156;20.788;2023-12-28T02:03:28;22.70;;;12.80;;
38611;SDS011;24368;52.156;20.788;2023-12-28T02:08:30;21.80;;;12.60;;
38611;SDS011;24368;52.156;20.788;2023-12-28T02:13:32;16.30;;;10.60;;
38611;SDS011;24368;52.156;20.788;2023-12-28T02:18:35;18.90;;;11.50;;
38611;SDS011;24368;52.156;20.788;2023-12-28T02:23:48;17.10;;;11.40;;
38611;SDS011;24368;52.156;20.788;2023-12-28T02:28:50;15.80;;;10.20;;
38611;SDS011;24368;52.156;20.788;2023-12-28T02:33:57;15.10;;;10.00;;
38611;SDS011;24368;52.156;20.788;2023-12-28T02:39:06;17.50;;;10.50;;
38611;SDS011;24368;52.156;20.788;2023-12-28T02:44:09;17.20;;;10.00;;
38611;SDS011;24368;52.156;20.788;2023-12-28T02:49:11;14.80;;;9.50;;
38611;SDS011;24368;52.156;20.788;2023-12-28T02:54:13;17.50;;;9.10;;
38611;SDS011;24368;52.156;20.788;2023-12-28T02:59:15;16.20;;;8.70;;
38611;SDS011;24368;52.156;20.788;2023-12-28T03:04:16;12.50;;;8.50;;
38611;SDS011;24368;52.156;20.788;2023-12-28T03:09:18;14.00;;;8.60;;
38611;SDS011;24368;52.156;20.788;2023-12-28T03:14:20;14.00;;;8.40;;
38611;SDS011;24368;52.156;20.788;2023-12-28T03:19:22;15.10;;;8.50;;
38611;SDS011;24368;52.156;20.788;2023-12-28T03:24:24;12.70;;;8.50;;
38611;SDS011;24368;52.156;20.788;2023-12-28T03:29:26;12.30;;;8.10;;
38611;SDS011;24368;52.156;20.788;2023-12-28T03:34:29;15.90;;;10.00;;
38611;SDS011;24368;52.156;20.788;2023-12-28T03:39:31;15.80;;;8.80;;
38611;SDS011;24368;52.156;20.788;2023-12-28T03:44:34;14.50;;;9.60;;
38611;SDS011;24368;52.156;20.788;2023-12-28T03:49:36;17.60;;;9.50;;
38611;SDS011;24368;52.156;20.788;2023-12-28T03:54:39;16.70;;;9.50;;
38611;SDS011;24368;52.156;20.788;2023-12-28T03:59:41;14.60;;;9.20;;
38611;SDS011;24368;52.156;20.788;2023-12-28T04:04:42;12.50;;;8.90;;
38611;SDS011;24368;52.156;20.788;2023-12-28T04:09:44;15.00;;;10.20;;
38611;SDS011;24368;52.156;20.788;2023-12-28T04:14:46;20.10;;;10.70;;
38611;SDS011;24368;52.156;20.788;2023-12-28T04:19:48;18.00;;;10.00;;
38611;SDS011;24368;52.156;20.788;2023-12-28T04:24:50;14.50;;;9.30;;
38611;SDS011;24368;52.156;20.788;2023-12-28T04:29:51;16.70;;;10.10;;
38611;SDS011;24368;52.156;20.788;2023-12-28T04:34:53;18.70;;;11.20;;
38611;SDS011;24368;52.156;20.788;2023-12-28T04:39:55;17.00;;;10.50;;
38611;SDS011;24368;52.156;20.788;2023-12-28T04:44:58;17.50;;;10.00;;
38611;SDS011;24368;52.156;20.788;2023-12-28T04:50:00;18.10;;;9.40;;
38611;SDS011;24368;52.156;20.788;2023-12-28T04:55:02;16.80;;;9.40;;
38611;SDS011;24368;52.156;20.788;2023-12-28T05:00:04;17.40;;;10.40;;
38611;SDS011;24368;52.156;20.788;2023-12-28T05:05:07;18.70;;;10.90;;
38611;SDS011;24368;52.156;20.788;2023-12-28T05:10:11;15.20;;;10.10;;
38611;SDS011;24368;52.156;20.788;2023-12-28T05:15:13;17.40;;;10.00;;
38611;SDS011;24368;52.156;20.788;2023-12-28T05:20:15;15.80;;;10.30;;
38611;SDS011;24368;52.156;20.788;2023-12-28T05:25:17;21.00;;;10.10;;
38611;SDS011;24368;52.156;20.788;2023-12-28T05:30:19;16.80;;;10.40;;
38611;SDS011;24368;52.156;20.788;2023-12-28T05:35:21;13.80;;;9.30;;
38611;SDS011;24368;52.156;20.788;2023-12-28T05:40:23;13.00;;;9.30;;
38611;SDS011;24368;52.156;20.788;2023-12-28T05:45:30;14.50;;;9.40;;
38611;SDS011;24368;52.156;20.788;2023-12-28T05:50:32;17.40;;;9.40;;
38611;SDS011;24368;52.156;20.788;2023-12-28T05:55:34;13.20;;;9.00;;
38611;SDS011;24368;52.156;20.788;2023-12-28T06:00:36;15.60;;;9.60;;
38611;SDS011;24368;52.156;20.788;2023-12-28T06:05:38;15.70;;;9.30;;
38611;SDS011;24368;52.156;20.788;2023-12-28T06:10:40;15.60;;;10.20;;
38611;SDS011;24368;52.156;20.788;2023-12-28T06:15:41;12.80;;;9.40;;
38611;SDS011;24368;52.156;20.788;2023-12-28T06:20:43;13.70;;;8.80;;
38611;SDS011;24368;52.156;20.788;2023-12-28T06:25:45;14.10;;;8.70;;
38611;SDS011;24368;52.156;20.788;2023-12-28T06:30:47;13.60;;;8.30;;
38611;SDS011;24368;52.156;20.788;2023-12-28T06:35:49;11.00;;;8.80;;
38611;SDS011;24368;52.156;20.788;2023-12-28T06:40:51;13.80;;;8.40;;
38611;SDS011;24368;52.156;20.788;2023-12-28T06:45:53;11.00;;;8.20;;
38611;SDS011;24368;52.156;20.788;2023-12-28T06:50:55;11.20;;;7.80;;
38611;SDS011;24368;52.156;20.788;2023-12-28T06:55:57;11.20;;;8.00;;
38611;SDS011;24368;52.156;20.788;2023-12-28T07:00:59;11.50;;;8.40;;
38611;SDS011;24368;52.156;20.788;2023-12-28T07:06:04;13.30;;;8.50;;
38611;SDS011;24368;52.156;20.788;2023-12-28T07:11:09;11.40;;;7.40;;
38611;SDS011;24368;52.156;20.788;2023-12-28T07:16:12;15.80;;;9.40;;
38611;SDS011;24368;52.156;20.788;2023-12-28T07:21:14;12.70;;;8.50;;
38611;SDS011;24368;52.156;20.788;2023-12-28T07:26:16;12.00;;;8.80;;
38611;SDS011;24368;52.156;20.788;2023-12-28T07:31:26;12.90;;;8.70;;
38611;SDS011;24368;52.156;20.788;2023-12-28T07:36:29;12.60;;;8.80;;
38611;SDS011;24368;52.156;20.788;2023-12-28T07:41:31;15.10;;;8.80;;
38611;SDS011;24368;52.156;20.788;2023-12-28T07:46:33;14.50;;;9.10;;
38611;SDS011;24368;52.156;20.788;2023-12-28T07:51:34;15.10;;;8.90;;
38611;SDS011;24368;52.156;20.788;2023-12-28T07:56:36;13.60;;;9.60;;
38611;SDS011;24368;52.156;20.788;2023-12-28T08:01:38;12.10;;;9.00;;
38611;SDS011;24368;52.156;20.788;2023-12-28T08:06:40;16.00;;;10.40;;
38611;SDS011;24368;52.156;20.788;2023-12-28T08:11:42;12.70;;;9.30;;
38611;SDS011;24368;52.156;20.788;2023-12-28T08:16:43;12.90;;;9.30;;
38611;SDS011;24368;52.156;20.788;2023-12-28T08:21:45;17.80;;;10.40;;
38611;SDS011;24368;52.156;20.788;2023-12-28T08:26:47;10.80;;;8.20;;
38611;SDS011;24368;52.156;20.788;2023-12-28T08:31:48;12.10;;;8.00;;
38611;SDS011;24368;52.156;20.788;2023-12-28T08:36:50;13.10;;;8.80;;
38611;SDS011;24368;52.156;20.788;2023-12-28T08:41:53;22.60;;;13.80;;
38611;SDS011;24368;52.156;20.788;2023-12-28T08:46:55;20.70;;;12.20;;
38611;SDS011;24368;52.156;20.788;2023-12-28T08:51:57;9.20;;;7.00;;
38611;SDS011;24368;52.156;20.788;2023-12-28T08:56:58;10.30;;;7.20;;
38611;SDS011;24368;52.156;20.788;2023-12-28T09:02:00;7.90;;;7.10;;
38611;SDS011;24368;52.156;20.788;2023-12-28T09:07:03;9.20;;;6.70;;
38611;SDS011;24368;52.156;20.788;2023-12-28T09:12:05;8.40;;;6.20;;
38611;SDS011;24368;52.156;20.788;2023-12-28T09:17:07;9.30;;;7.20;;
38611;SDS011;24368;52.156;20.788;2023-12-28T09:22:09;9.50;;;6.20;;
38611;SDS011;24368;52.156;20.788;2023-12-28T09:27:11;8.50;;;6.40;;
38611;SDS011;24368;52.156;20.788;2023-12-28T09:32:13;8.30;;;6.10;;
38611;SDS011;24368;52.156;20.788;2023-12-28T09:37:15;6.60;;;5.20;;
38611;SDS011;24368;52.156;20.788;2023-12-28T09:42:19;8.50;;;5.70;;
38611;SDS011;24368;52.156;20.788;2023-12-28T09:47:33;8.10;;;5.70;;
38611;SDS011;24368;52.156;20.788;2023-12-28T09:52:35;8.60;;;6.00;;
38611;SDS011;24368;52.156;20.788;2023-12-28T09:57:37;9.20;;;6.70;;
38611;SDS011;24368;52.156;20.788;2023-12-28T10:02:40;9.10;;;6.30;;
38611;SDS011;24368;52.156;20.788;2023-12-28T10:07:47;9.80;;;6.60;;
38611;SDS011;24368;52.156;20.788;2023-12-28T10:12:49;8.10;;;6.20;;
38611;SDS011;24368;52.156;20.788;2023-12-28T10:17:53;9.30;;;7.10;;
38611;SDS011;24368;52.156;20.788;2023-12-28T10:22:55;9.90;;;7.00;;
38611;SDS011;24368;52.156;20.788;2023-12-28T10:28:03;9.90;;;7.00;;
38611;SDS011;24368;52.156;20.788;2023-12-28T10:33:07;8.60;;;7.10;;
38611;SDS011;24368;52.156;20.788;2023-12-28T10:38:09;9.40;;;7.40;;
38611;SDS011;24368;52.156;20.788;2023-12-28T10:43:16;11.50;;;8.30;;
38611;SDS011;24368;52.156;20.788;2023-12-28T10:48:21;7.80;;;6.50;;
38611;SDS011;24368;52.156;20.788;2023-12-28T10:53:41;13.80;;;9.90;;
38611;SDS011;24368;52.156;20.788;2023-12-28T11:04:42;8.80;;;6.70;;
38611;SDS011;24368;52.156;20.788;2023-12-28T11:09:47;9.70;;;6.60;;
38611;SDS011;24368;52.156;20.788;2023-12-28T11:14:50;7.80;;;5.70;;
38611;SDS011;24368;52.156;20.788;2023-12-28T11:19:54;10.60;;;7.10;;
38611;SDS011;24368;52.156;20.788;2023-12-28T11:24:57;8.10;;;6.30;;
38611;SDS011;24368;52.156;20.788;2023-12-28T11:29:59;9.50;;;6.80;;
38611;SDS011;24368;52.156;20.788;2023-12-28T11:35:01;7.80;;;6.70;;
38611;SDS011;24368;52.156;20.788;2023-12-28T11:40:12;8.50;;;7.00;;
38611;SDS011;24368;52.156;20.788;2023-12-28T11:45:18;8.90;;;6.90;;
38611;SDS011;24368;52.156;20.788;2023-12-28T11:50:20;9.70;;;6.50;;
38611;SDS011;24368;52.156;20.788;2023-12-28T11:55:23;12.70;;;8.80;;
38611;SDS011;24368;52.156;20.788;2023-12-28T12:00:27;11.30;;;8.80;;
38611;SDS011;24368;52.156;20.788;2023-12-28T12:05:29;10.60;;;7.10;;
38611;SDS011;24368;52.156;20.788;2023-12-28T12:10:32;9.10;;;6.40;;
38611;SDS011;24368;52.156;20.788;2023-12-28T12:15:33;8.80;;;6.30;;
38611;SDS011;24368;52.156;20.788;2023-12-28T12:20:36;8.60;;;6.40;;
38611;SDS011;24368;52.156;20.788;2023-12-28T12:25:40;9.50;;;6.50;;
38611;SDS011;24368;52.156;20.788;2023-12-28T12:30:50;8.20;;;6.60;;
38611;SDS011;24368;52.156;20.788;2023-12-28T12:35:53;10.40;;;8.10;;
38611;SDS011;24368;52.156;20.788;2023-12-28T12:40:55;7.70;;;6.80;;
38611;SDS011;24368;52.156;20.788;2023-12-28T12:45:57;7.70;;;6.50;;
38611;SDS011;24368;52.156;20.788;2023-12-28T12:51:01;8.20;;;6.90;;
38611;SDS011;24368;52.156;20.788;2023-12-28T12:56:03;9.90;;;6.90;;
38611;SDS011;24368;52.156;20.788;2023-12-28T13:01:09;9.20;;;7.30;;
38611;SDS011;24368;52.156;20.788;2023-12-28T13:06:13;8.30;;;5.90;;
38611;SDS011;24368;52.156;20.788;2023-12-28T13:11:15;6.90;;;5.70;;
38611;SDS011;24368;52.156;20.788;2023-12-28T13:16:17;7.70;;;5.50;;
38611;SDS011;24368;52.156;20.788;2023-12-28T13:21:18;6.50;;;5.30;;
38611;SDS011;24368;52.156;20.788;2023-12-28T13:26:20;6.00;;;5.00;;
38611;SDS011;24368;52.156;20.788;2023-12-28T13:31:22;5.60;;;4.70;;
38611;SDS011;24368;52.156;20.788;2023-12-28T13:36:24;10.40;;;6.10;;
38611;SDS011;24368;52.156;20.788;2023-12-28T13:41:28;8.80;;;5.80;;
38611;SDS011;24368;52.156;20.788;2023-12-28T13:46:30;9.20;;;6.10;;
38611;SDS011;24368;52.156;20.788;2023-12-28T13:51:32;9.20;;;6.40;;
38611;SDS011;24368;52.156;20.788;2023-12-28T13:56:34;9.50;;;6.70;;
38611;SDS011;24368;52.156;20.788;2023-12-28T14:01:36;8.70;;;6.90;;
38611;SDS011;24368;52.156;20.788;2023-12-28T14:06:39;10.50;;;8.30;;
38611;SDS011;24368;52.156;20.788;2023-12-28T14:11:41;8.80;;;6.50;;
38611;SDS011;24368;52.156;20.788;2023-12-28T14:16:43;12.10;;;8.10;;
38611;SDS011;24368;52.156;20.788;2023-12-28T14:21:44;11.50;;;8.10;;
38611;SDS011;24368;52.156;20.788;2023-12-28T14:26:46;12.30;;;8.20;;
38611;SDS011;24368;52.156;20.788;2023-12-28T14:31:51;19.40;;;9.00;;
38611;SDS011;24368;52.156;20.788;2023-12-28T14:36:53;9.30;;;7.50;;
38611;SDS011;24368;52.156;20.788;2023-12-28T14:41:55;14.00;;;8.00;;
38611;SDS011;24368;52.156;20.788;2023-12-28T14:46:59;15.40;;;9.70;;
38611;SDS011;24368;52.156;20.788;2023-12-28T14:52:01;8.30;;;6.60;;
38611;SDS011;24368;52.156;20.788;2023-12-28T14:57:03;9.30;;;6.60;;
38611;SDS011;24368;52.156;20.788;2023-12-28T15:02:05;10.20;;;7.00;;
38611;SDS011;24368;52.156;20.788;2023-12-28T15:07:07;8.50;;;6.90;;
38611;SDS011;24368;52.156;20.788;2023-12-28T15:12:09;8.40;;;6.70;;
38611;SDS011;24368;52.156;20.788;2023-12-28T15:17:11;12.30;;;9.70;;
38611;SDS011;24368;52.156;20.788;2023-12-28T15:22:13;12.90;;;10.50;;
38611;SDS011;24368;52.156;20.788;2023-12-28T15:27:15;11.10;;;9.00;;
38611;SDS011;24368;52.156;20.788;2023-12-28T15:32:17;10.70;;;8.20;;
38611;SDS011;24368;52.156;20.788;2023-12-28T15:37:19;12.40;;;8.70;;
38611;SDS011;24368;52.156;20.788;2023-12-28T15:42:21;10.80;;;8.90;;
38611;SDS011;24368;52.156;20.788;2023-12-28T15:47:23;9.90;;;7.80;;
38611;SDS011;24368;52.156;20.788;2023-12-28T15:52:24;11.20;;;8.40;;
38611;SDS011;24368;52.156;20.788;2023-12-28T15:57:26;11.80;;;9.20;;
38611;SDS011;24368;52.156;20.788;2023-12-28T16:02:28;10.70;;;8.80;;
38611;SDS011;24368;52.156;20.788;2023-12-28T16:07:31;11.20;;;8.50;;
38611;SDS011;24368;52.156;20.788;2023-12-28T16:12:33;11.20;;;8.80;;
38611;SDS011;24368;52.156;20.788;2023-12-28T16:17:35;12.80;;;8.40;;
38611;SDS011;24368;52.156;20.788;2023-12-28T16:22:37;11.70;;;9.10;;
38611;SDS011;24368;52.156;20.788;2023-12-28T16:27:39;11.40;;;8.50;;
38611;SDS011;24368;52.156;20.788;2023-12-28T16:32:41;11.10;;;8.90;;
38611;SDS011;24368;52.156;20.788;2023-12-28T16:37:45;12.10;;;10.00;;
38611;SDS011;24368;52.156;20.788;2023-12-28T16:42:47;14.50;;;9.50;;
38611;SDS011;24368;52.156;20.788;2023-12-28T16:47:49;14.40;;;10.50;;
38611;SDS011;24368;52.156;20.788;2023-12-28T16:52:51;13.00;;;10.70;;
38611;SDS011;24368;52.156;20.788;2023-12-28T16:57:56;11.00;;;8.40;;
38611;SDS011;24368;52.156;20.788;2023-12-28T17:02:58;12.20;;;9.90;;
38611;SDS011;24368;52.156;20.788;2023-12-28T17:08:00;10.30;;;8.70;;
38611;SDS011;24368;52.156;20.788;2023-12-28T17:13:02;12.00;;;9.70;;
38611;SDS011;24368;52.156;20.788;2023-12-28T17:18:07;9.90;;;8.30;;
38611;SDS011;24368;52.156;20.788;2023-12-28T17:33:51;12.10;;;8.50;;
38611;SDS011;24368;52.156;20.788;2023-12-28T17:38:53;11.90;;;8.70;;
38611;SDS011;24368;52.156;20.788;2023-12-28T17:43:59;10.50;;;8.90;;
38611;SDS011;24368;52.156;20.788;2023-12-28T17:49:05;11.00;;;8.10;;
38611;SDS011;24368;52.156;20.788;2023-12-28T17:54:11;13.20;;;10.50;;
38611;SDS011;24368;52.156;20.788;2023-12-28T17:59:13;10.20;;;8.40;;
38611;SDS011;24368;52.156;20.788;2023-12-28T18:04:15;9.00;;;8.00;;
38611;SDS011;24368;52.156;20.788;2023-12-28T18:09:18;11.70;;;8.10;;
38611;SDS011;24368;52.156;20.788;2023-12-28T18:14:22;10.90;;;8.00;;
38611;SDS011;24368;52.156;20.788;2023-12-28T18:19:24;10.10;;;8.60;;
38611;SDS011;24368;52.156;20.788;2023-12-28T18:24:26;9.30;;;7.70;;
38611;SDS011;24368;52.156;20.788;2023-12-28T18:29:28;11.40;;;8.30;;
38611;SDS011;24368;52.156;20.788;2023-12-28T18:34:30;9.60;;;7.60;;
38611;SDS011;24368;52.156;20.788;2023-12-28T18:39:31;9.90;;;7.30;;
38611;SDS011;24368;52.156;20.788;2023-12-28T18:44:39;13.40;;;8.50;;
38611;SDS011;24368;52.156;20.788;2023-12-28T18:49:41;9.70;;;7.20;;
38611;SDS011;24368;52.156;20.788;2023-12-28T18:54:42;11.50;;;8.60;;
38611;SDS011;24368;52.156;20.788;2023-12-28T18:59:45;10.20;;;7.80;;
38611;SDS011;24368;52.156;20.788;2023-12-28T19:04:46;11.00;;;7.60;;
38611;SDS011;24368;52.156;20.788;2023-12-28T19:09:49;8.60;;;7.40;;
38611;SDS011;24368;52.156;20.788;2023-12-28T19:14:51;8.00;;;7.20;;
38611;SDS011;24368;52.156;20.788;2023-12-28T19:19:53;8.10;;;6.60;;
38611;SDS011;24368;52.156;20.788;2023-12-28T19:24:56;10.50;;;7.80;;
38611;SDS011;24368;52.156;20.788;2023-12-28T19:29:59;10.10;;;8.00;;
38611;SDS011;24368;52.156;20.788;2023-12-28T19:35:03;10.20;;;7.60;;
38611;SDS011;24368;52.156;20.788;2023-12-28T19:40:05;10.50;;;8.10;;
38611;SDS011;24368;52.156;20.788;2023-12-28T19:45:08;10.20;;;8.10;;
38611;SDS011;24368;52.156;20.788;2023-12-28T19:50:10;10.60;;;8.30;;
38611;SDS011;24368;52.156;20.788;2023-12-28T19:55:14;9.10;;;8.10;;
38611;SDS011;24368;52.156;20.788;2023-12-28T20:00:16;11.70;;;9.50;;
38611;SDS011;24368;52.156;20.788;2023-12-28T20:05:20;9.20;;;7.50;;
38611;SDS011;24368;52.156;20.788;2023-12-28T20:10:21;8.90;;;7.00;;
38611;SDS011;24368;52.156;20.788;2023-12-28T20:15:24;8.40;;;7.10;;
38611;SDS011;24368;52.156;20.788;2023-12-28T20:20:27;8.50;;;6.60;;
38611;SDS011;24368;52.156;20.788;2023-12-28T20:25:29;9.70;;;7.70;;
38611;SDS011;24368;52.156;20.788;2023-12-28T20:30:34;11.50;;;8.30;;
38611;SDS011;24368;52.156;20.788;2023-12-28T20:35:37;12.00;;;7.70;;
38611;SDS011;24368;52.156;20.788;2023-12-28T20:40:39;11.20;;;8.20;;
38611;SDS011;24368;52.156;20.788;2023-12-28T20:45:40;11.20;;;7.70;;
38611;SDS011;24368;52.156;20.788;2023-12-28T20:50:42;11.10;;;8.20;;
38611;SDS011;24368;52.156;20.788;2023-12-28T20:55:44;10.80;;;8.30;;
38611;SDS011;24368;52.156;20.788;2023-12-28T21:00:46;9.40;;;7.10;;
38611;SDS011;24368;52.156;20.788;2023-12-28T21:05:48;9.60;;;7.20;;
38611;SDS011;24368;52.156;20.788;2023-12-28T21:10:49;10.60;;;8.20;;
38611;SDS011;24368;52.156;20.788;2023-12-28T21:15:56;8.40;;;6.90;;
38611;SDS011;24368;52.156;20.788;2023-12-28T21:20:58;10.40;;;8.20;;
38611;SDS011;24368;52.156;20.788;2023-12-28T21:26:01;9.60;;;7.20;;
38611;SDS011;24368;52.156;20.788;2023-12-28T21:31:03;11.60;;;7.70;;
38611;SDS011;24368;52.156;20.788;2023-12-28T21:36:04;10.20;;;7.70;;
38611;SDS011;24368;52.156;20.788;2023-12-28T21:41:07;8.80;;;7.00;;
38611;SDS011;24368;52.156;20.788;2023-12-28T21:46:09;12.70;;;10.20;;
38611;SDS011;24368;52.156;20.788;2023-12-28T21:51:11;9.80;;;7.60;;
38611;SDS011;24368;52.156;20.788;2023-12-28T21:56:13;11.80;;;7.80;;
38611;SDS011;24368;52.156;20.788;2023-12-28T22:01:14;9.40;;;7.60;;
38611;SDS011;24368;52.156;20.788;2023-12-28T22:06:16;9.90;;;7.60;;
38611;SDS011;24368;52.156;20.788;2023-12-28T22:11:19;10.50;;;7.50;;
38611;SDS011;24368;52.156;20.788;2023-12-28T22:16:20;11.20;;;7.80;;
38611;SDS011;24368;52.156;20.788;2023-12-28T22:21:22;11.70;;;7.40;;
38611;SDS011;24368;52.156;20.788;2023-12-28T22:26:24;9.40;;;7.60;;
38611;SDS011;24368;52.156;20.788;2023-12-28T22:31:25;6.90;;;5.90;;
38611;SDS011;24368;52.156;20.788;2023-12-28T22:36:27;10.20;;;7.20;;
38611;SDS011;24368;52.156;20.788;2023-12-28T22:41:29;8.70;;;7.00;;
38611;SDS011;24368;52.156;20.788;2023-12-28T22:46:32;8.90;;;7.20;;
38611;SDS011;24368;52.156;20.788;2023-12-28T22:51:33;8.80;;;7.00;;
38611;SDS011;24368;52.156;20.788;2023-12-28T22:56:35;9.70;;;6.90;;
38611;SDS011;24368;52.156;20.788;2023-12-28T23:01:37;10.90;;;6.50;;
38611;SDS011;24368;52.156;20.788;2023-12-28T23:06:39;9.60;;;6.70;;
38611;SDS011;24368;52.156;20.788;2023-12-28T23:11:41;7.70;;;5.90;;
38611;SDS011;24368;52.156;20.788;2023-12-28T23:16:43;10.20;;;6.20;;
38611;SDS011;24368;52.156;20.788;2023-12-28T23:21:45;10.60;;;6.10;;
38611;SDS011;24368;52.156;20.788;2023-12-28T23:26:46;7.90;;;6.00;;
38611;SDS011;24368;52.156;20.788;2023-12-28T23:31:48;11.60;;;7.90;;
38611;SDS011;24368;52.156;20.788;2023-12-28T23:36:50;9.80;;;6.40;;
38611;SDS011;24368;52.156;20.788;2023-12-28T23:41:53;9.40;;;6.90;;
38611;SDS011;24368;52.156;20.788;2023-12-28T23:46:54;8.30;;;5.30;;
38611;SDS011;24368;52.156;20.788;2023-12-28T23:51:56;8.80;;;6.40;;
38611;SDS011;24368;52.156;20.788;2023-12-28T23:56:58;8.00;;;5.90;;
